createdAt,value
2023-01-05T00:01:05.812Z,9.78
2023-01-05T00:03:32.753Z,9.79
2023-01-05T00:06:03.947Z,9.76
2023-01-05T00:08:36.698Z,9.75
2023-01-05T00:11:30.446Z,9.73
2023-01-05T00:14:15.483Z,9.68
2023-01-05T00:17:00.652Z,9.75
2023-01-05T00:19:45.743Z,9.76
2023-01-05T00:22:38.526Z,9.69
2023-01-05T00:25:12.700Z,9.74
2023-01-05T00:27:41.130Z,9.75
2023-01-05T00:30:09.308Z,9.77
2023-01-05T00:32:35.854Z,9.77
2023-01-05T00:35:02.715Z,9.81
2023-01-05T00:37:32.709Z,9.76
2023-01-05T00:39:59.645Z,9.76
2023-01-05T00:42:27.016Z,9.80
2023-01-05T00:44:53.656Z,9.81
2023-01-05T00:47:20.183Z,9.88
2023-01-05T00:49:46.751Z,9.85
2023-01-05T00:52:13.334Z,9.89
2023-01-05T00:54:39.915Z,9.86
2023-01-05T00:57:07.389Z,9.90
2023-01-05T00:59:35.320Z,9.93
2023-01-05T01:02:01.998Z,9.97
2023-01-05T01:04:30.935Z,9.94
2023-01-05T01:06:57.503Z,9.94
2023-01-05T01:09:24.007Z,9.93
2023-01-05T01:14:17.389Z,10.01
2023-01-05T01:16:44.023Z,10.00
2023-01-05T01:19:15.959Z,10.03
2023-01-05T01:21:42.974Z,10.09
2023-01-05T01:24:15.581Z,10.13
2023-01-05T01:26:42.128Z,10.17
2023-01-05T01:29:08.672Z,10.13
2023-01-05T01:31:35.676Z,10.16
2023-01-05T01:34:02.184Z,10.15
2023-01-05T01:36:28.752Z,10.11
2023-01-05T01:38:55.381Z,10.14
2023-01-05T01:41:22.029Z,10.16
2023-01-05T01:43:49.630Z,10.15
2023-01-05T01:46:19.720Z,10.15
2023-01-05T01:48:59.456Z,10.12
2023-01-05T01:51:43.576Z,10.08
2023-01-05T01:54:13.690Z,10.17
2023-01-05T01:56:44.362Z,10.16
2023-01-05T01:59:11.714Z,10.18
2023-01-05T02:01:38.327Z,10.16
2023-01-05T02:04:05.306Z,10.16
2023-01-05T02:06:31.856Z,10.22
2023-01-05T02:08:58.387Z,10.23
2023-01-05T02:11:54.425Z,10.18
2023-01-05T02:15:12.776Z,10.17
2023-01-05T02:18:06.976Z,10.16
2023-01-05T02:20:39.812Z,10.18
2023-01-05T02:23:21.074Z,10.16
2023-01-05T02:26:10.776Z,10.09
2023-01-05T02:29:13.317Z,9.99
2023-01-05T02:31:48.635Z,10.07
2023-01-05T02:34:36.611Z,10.07
2023-01-05T02:37:23.036Z,10.13
2023-01-05T02:39:56.199Z,10.15
2023-01-05T02:42:25.140Z,10.15
2023-01-05T02:44:52.068Z,10.22
2023-01-05T02:47:30.592Z,10.07
2023-01-05T02:50:11.949Z,10.14
2023-01-05T02:52:49.612Z,10.14
2023-01-05T02:55:20.189Z,10.14
2023-01-05T02:57:56.363Z,10.15
2023-01-05T03:00:25.975Z,10.18
2023-01-05T03:02:56.686Z,10.16
2023-01-05T03:05:26.751Z,10.10
2023-01-05T03:08:06.808Z,10.01
2023-01-05T03:11:05.732Z,10.02
2023-01-05T03:13:52.887Z,10.02
2023-01-05T03:16:24.610Z,10.05
2023-01-05T03:19:12.039Z,10.05
2023-01-05T03:21:57.267Z,10.11
2023-01-05T03:24:43.024Z,10.10
2023-01-05T03:27:31.212Z,10.05
2023-01-05T03:30:18.874Z,10.04
2023-01-05T03:33:08.193Z,10.02
2023-01-05T03:35:39.924Z,10.03
2023-01-05T03:38:18.728Z,10.07
2023-01-05T03:40:47.299Z,10.09
2023-01-05T03:43:14.302Z,10.13
2023-01-05T03:45:43.819Z,10.16
2023-01-05T03:48:15.872Z,10.17
2023-01-05T03:50:42.386Z,10.22
2023-01-05T03:53:13.150Z,10.22
2023-01-05T03:55:40.561Z,10.29
2023-01-05T03:58:07.625Z,10.26
2023-01-05T04:00:35.170Z,10.29
2023-01-05T04:03:09.176Z,10.33
2023-01-05T04:05:36.213Z,10.31
2023-01-05T04:08:04.084Z,10.34
2023-01-05T04:10:32.345Z,10.33
2023-01-05T04:13:00.684Z,10.37
2023-01-05T04:15:27.581Z,10.32
2023-01-05T04:17:55.108Z,10.26
2023-01-05T04:20:21.663Z,10.37
2023-01-05T04:22:48.209Z,10.28
2023-01-05T04:25:18.427Z,10.25
2023-01-05T04:27:45.020Z,10.22
2023-01-05T04:30:12.637Z,10.17
2023-01-05T04:32:39.158Z,10.23
2023-01-05T04:35:11.569Z,10.19
2023-01-05T04:37:39.822Z,10.34
2023-01-05T04:40:07.832Z,10.30
2023-01-05T04:42:42.253Z,10.25
2023-01-05T04:45:10.588Z,10.28
2023-01-05T04:47:37.722Z,10.15
2023-01-05T04:50:04.785Z,10.05
2023-01-05T04:52:31.745Z,10.01
2023-01-05T04:54:58.563Z,9.88
2023-01-05T04:57:27.471Z,9.78
2023-01-05T04:59:54.098Z,9.77
2023-01-05T05:02:20.894Z,9.70
2023-01-05T05:04:49.528Z,9.69
2023-01-05T05:07:16.689Z,9.70
2023-01-05T05:09:43.291Z,9.67
2023-01-05T05:12:10.774Z,9.70
2023-01-05T05:14:38.562Z,9.70
2023-01-05T05:17:05.744Z,9.65
2023-01-05T05:19:32.876Z,9.62
2023-01-05T05:21:59.864Z,9.59
2023-01-05T05:24:27.651Z,9.62
2023-01-05T05:26:54.272Z,9.60
2023-01-05T05:29:20.860Z,9.62
2023-01-05T05:31:47.515Z,9.67
2023-01-05T05:34:14.260Z,9.66
2023-01-05T05:36:40.860Z,9.64
2023-01-05T05:39:07.491Z,9.57
2023-01-05T05:41:34.081Z,9.58
2023-01-05T05:44:02.491Z,9.58
2023-01-05T05:46:29.795Z,9.54
2023-01-05T05:48:57.243Z,9.66
2023-01-05T05:51:24.354Z,9.66
2023-01-05T05:53:51.503Z,9.67
2023-01-05T05:56:18.274Z,9.57
2023-01-05T05:58:44.888Z,9.57
2023-01-05T06:01:11.694Z,9.56
2023-01-05T06:03:38.356Z,9.49
2023-01-05T06:06:05.104Z,9.50
2023-01-05T06:08:31.827Z,9.49
2023-01-05T06:10:58.697Z,9.49
2023-01-05T06:13:25.612Z,9.47
2023-01-05T06:15:52.405Z,9.51
2023-01-05T06:18:19.142Z,9.55
2023-01-05T06:20:45.882Z,9.55
2023-01-05T06:23:12.529Z,9.58
2023-01-05T06:25:39.106Z,9.60
2023-01-05T06:28:05.680Z,9.48
2023-01-05T06:30:32.271Z,9.47
2023-01-05T06:32:58.833Z,9.48
2023-01-05T06:35:25.375Z,9.40
2023-01-05T06:37:51.910Z,9.40
2023-01-05T06:40:18.420Z,9.41
2023-01-05T06:42:44.975Z,9.38
2023-01-05T06:45:14.047Z,9.33
2023-01-05T06:47:40.659Z,9.35
2023-01-05T06:50:07.627Z,9.35
2023-01-05T06:52:36.802Z,9.31
2023-01-05T06:55:04.225Z,9.27
2023-01-05T06:57:30.770Z,9.37
2023-01-05T06:59:57.282Z,9.33
2023-01-05T07:02:23.878Z,9.38
2023-01-05T07:04:50.385Z,9.38
2023-01-05T07:07:16.953Z,9.43
2023-01-05T07:09:45.083Z,9.47
2023-01-05T07:12:11.634Z,9.47
2023-01-05T07:14:38.426Z,9.47
2023-01-05T07:17:05.301Z,9.48
2023-01-05T07:19:31.845Z,9.51
2023-01-05T07:21:58.645Z,9.53
2023-01-05T07:24:25.210Z,9.28
2023-01-05T07:26:51.827Z,9.27
2023-01-05T07:29:18.383Z,9.32
2023-01-05T07:31:44.932Z,9.35
2023-01-05T07:34:11.626Z,9.33
2023-01-05T07:36:38.139Z,9.30
2023-01-05T07:39:04.687Z,9.31
2023-01-05T07:41:31.187Z,9.19
2023-01-05T07:43:57.690Z,9.10
2023-01-05T07:46:24.257Z,9.12
2023-01-05T07:48:51.082Z,9.16
2023-01-05T07:51:18.180Z,9.05
2023-01-05T07:53:44.939Z,9.02
2023-01-05T07:56:12.270Z,9.05
2023-01-05T07:58:38.828Z,9.06
2023-01-05T08:01:07.159Z,8.96
2023-01-05T08:03:34.417Z,8.89
2023-01-05T08:06:15.310Z,8.75
2023-01-05T08:08:42.095Z,8.88
2023-01-05T08:11:10.625Z,8.96
2023-01-05T08:13:55.726Z,9.03
2023-01-05T08:16:22.866Z,8.96
2023-01-05T08:18:49.419Z,9.14
2023-01-05T08:21:15.927Z,9.24
2023-01-05T08:23:42.413Z,9.29
2023-01-05T08:26:15.706Z,9.26
2023-01-05T08:28:42.636Z,9.40
2023-01-05T08:31:13.751Z,9.42
2023-01-05T08:33:40.195Z,9.44
2023-01-05T08:36:12.446Z,9.67
2023-01-05T08:38:38.965Z,9.78
2023-01-05T08:41:05.821Z,9.96
2023-01-05T08:43:32.451Z,10.02
2023-01-05T08:45:58.976Z,10.11
2023-01-05T08:48:25.538Z,10.15
2023-01-05T08:50:52.124Z,10.20
2023-01-05T08:53:18.626Z,10.40
2023-01-05T08:55:45.180Z,10.99
2023-01-05T08:58:11.738Z,11.22
2023-01-05T09:00:38.317Z,10.98
2023-01-05T09:03:04.986Z,10.92
2023-01-05T09:05:32.229Z,11.01
2023-01-05T09:07:58.747Z,11.19
2023-01-05T09:10:25.302Z,11.22
2023-01-05T09:12:51.840Z,11.38
2023-01-05T09:15:19.039Z,11.88
2023-01-05T09:17:45.766Z,12.41
2023-01-05T09:20:12.353Z,12.42
2023-01-05T09:22:39.446Z,12.33
2023-01-05T09:25:06.349Z,12.46
2023-01-05T09:27:33.051Z,12.84
2023-01-05T09:29:59.692Z,12.85
2023-01-05T09:32:26.261Z,12.73
2023-01-05T09:34:52.835Z,12.77
2023-01-05T09:37:19.352Z,12.89
2023-01-05T09:39:47.101Z,13.11
2023-01-05T09:42:19.681Z,13.49
2023-01-05T09:44:52.680Z,13.54
2023-01-05T09:47:34.902Z,13.11
2023-01-05T09:50:01.475Z,12.55
2023-01-05T09:52:30.479Z,12.33
2023-01-05T09:55:03.686Z,12.14
2023-01-05T09:57:30.729Z,12.04
2023-01-05T09:59:59.497Z,11.88
2023-01-05T10:02:34.128Z,12.02
2023-01-05T10:05:02.100Z,12.56
2023-01-05T10:07:42.895Z,12.75
2023-01-05T10:10:18.736Z,12.47
2023-01-05T10:13:04.442Z,12.15
2023-01-05T10:15:43.751Z,11.54
2023-01-05T10:18:16.486Z,11.28
2023-01-05T10:20:54.667Z,11.09
2023-01-05T10:23:45.466Z,10.67
2023-01-05T10:26:26.755Z,10.46
2023-01-05T10:29:03.551Z,10.36
2023-01-05T10:31:55.519Z,10.27
2023-01-05T10:34:24.095Z,10.23
2023-01-05T10:37:08.375Z,10.13
2023-01-05T10:39:51.003Z,10.02
2023-01-05T10:42:45.486Z,9.98
2023-01-05T10:45:15.360Z,10.20
2023-01-05T10:47:42.326Z,10.20
2023-01-05T10:50:26.832Z,10.06
2023-01-05T10:52:54.067Z,10.09
2023-01-05T10:55:21.892Z,9.99
2023-01-05T10:57:48.425Z,10.06
2023-01-05T11:00:18.123Z,10.11
2023-01-05T11:03:03.077Z,9.98
2023-01-05T11:05:48.367Z,9.92
2023-01-05T11:08:16.060Z,10.01
2023-01-05T11:11:00.150Z,9.89
2023-01-05T11:13:31.252Z,9.91
2023-01-05T11:16:09.108Z,9.91
2023-01-05T11:18:42.207Z,9.89
2023-01-05T11:21:16.363Z,9.83
2023-01-05T11:23:49.007Z,9.90
2023-01-05T11:26:18.540Z,10.01
2023-01-05T11:29:03.106Z,10.02
2023-01-05T11:31:57.883Z,9.84
2023-01-05T11:34:36.194Z,9.80
2023-01-05T11:37:08.499Z,9.95
2023-01-05T11:39:45.849Z,9.93
2023-01-05T11:42:26.036Z,9.92
2023-01-05T11:44:58.956Z,9.90
2023-01-05T11:47:43.954Z,10.01
2023-01-05T11:50:14.123Z,10.05
2023-01-05T11:52:43.021Z,10.20
2023-01-05T11:55:30.936Z,10.07
2023-01-05T11:58:14.300Z,10.06
2023-01-05T12:00:53.412Z,9.97
2023-01-05T12:03:34.758Z,10.02
2023-01-05T12:06:12.676Z,10.08
2023-01-05T12:09:12.086Z,10.16
2023-01-05T12:11:57.750Z,10.17
2023-01-05T12:14:47.485Z,10.16
2023-01-05T12:17:17.022Z,10.03
2023-01-05T12:20:00.766Z,9.98
2023-01-05T12:22:54.569Z,10.09
2023-01-05T12:25:45.248Z,10.06
2023-01-05T12:28:40.543Z,9.94
2023-01-05T12:34:20.319Z,9.91
2023-01-05T12:37:02.452Z,10.01
2023-01-05T12:39:56.973Z,10.02
2023-01-05T12:42:53.211Z,9.93
2023-01-05T12:45:39.214Z,10.00
2023-01-05T12:48:38.048Z,9.91
2023-01-05T12:51:18.827Z,9.81
2023-01-05T12:54:00.844Z,9.91
2023-01-05T12:56:37.685Z,10.07
2023-01-05T12:59:18.449Z,10.22
2023-01-05T13:01:52.521Z,10.12
2023-01-05T13:04:43.045Z,10.04
2023-01-05T13:07:20.373Z,10.02
2023-01-05T13:10:02.110Z,9.91
2023-01-05T13:12:29.534Z,9.97
2023-01-05T13:15:06.509Z,9.91
2023-01-05T13:17:35.144Z,9.87
2023-01-05T13:20:39.225Z,9.75
2023-01-05T13:23:16.764Z,9.77
2023-01-05T13:26:03.146Z,9.60
2023-01-05T13:28:31.927Z,9.68
2023-01-05T13:31:42.101Z,9.54
2023-01-05T13:34:21.046Z,9.56
2023-01-05T13:37:21.313Z,9.41
2023-01-05T13:40:22.256Z,9.45
2023-01-05T13:43:16.575Z,9.55
2023-01-05T13:46:05.002Z,9.48
2023-01-05T13:49:03.399Z,9.55
2023-01-05T13:51:49.254Z,9.65
2023-01-05T13:54:18.177Z,9.68
2023-01-05T13:56:46.782Z,9.63
2023-01-05T13:59:35.292Z,9.55
2023-01-05T14:02:24.569Z,9.48
2023-01-05T14:04:51.219Z,9.48
2023-01-05T14:07:18.248Z,9.59
2023-01-05T14:09:55.657Z,9.46
2023-01-05T14:12:25.494Z,9.42
2023-01-05T14:15:12.267Z,9.31
2023-01-05T14:17:51.192Z,9.44
2023-01-05T14:20:34.971Z,9.40
2023-01-05T14:23:23.770Z,9.34
2023-01-05T14:25:52.862Z,9.35
2023-01-05T14:28:28.565Z,9.47
2023-01-05T14:31:19.300Z,9.39
2023-01-05T14:33:52.144Z,9.29
2023-01-05T14:36:30.374Z,9.19
2023-01-05T14:39:02.152Z,9.15
2023-01-05T14:41:29.846Z,9.14
2023-01-05T14:44:17.368Z,9.15
2023-01-05T14:46:49.281Z,9.11
2023-01-05T14:49:35.032Z,9.13
2023-01-05T14:52:04.430Z,9.15
2023-01-05T14:55:05.614Z,9.08
2023-01-05T14:57:33.696Z,9.19
2023-01-05T15:00:11.402Z,9.19
2023-01-05T15:02:46.006Z,9.16
2023-01-05T15:05:16.610Z,9.13
2023-01-05T15:08:08.046Z,8.95
2023-01-05T15:11:32.633Z,9.01
2023-01-05T15:14:32.534Z,9.04
2023-01-05T15:17:22.586Z,8.84
2023-01-05T15:20:28.282Z,8.80
2023-01-05T15:23:28.870Z,8.70
2023-01-05T15:26:27.804Z,8.66
2023-01-05T15:29:12.910Z,8.63
2023-01-05T15:32:02.190Z,8.42
2023-01-05T15:34:46.261Z,8.40
2023-01-05T15:37:26.085Z,8.48
2023-01-05T15:39:54.984Z,8.49
2023-01-05T15:42:28.986Z,8.50
2023-01-05T15:44:56.526Z,8.45
2023-01-05T15:47:25.927Z,8.45
2023-01-05T15:49:56.447Z,8.44
2023-01-05T15:52:35.775Z,8.52
2023-01-05T15:55:14.302Z,8.39
2023-01-05T15:57:41.314Z,8.40
2023-01-05T16:00:20.450Z,8.36
2023-01-05T16:02:46.994Z,8.35
2023-01-05T16:05:16.509Z,8.30
2023-01-05T16:07:45.325Z,8.37
2023-01-05T16:10:51.776Z,8.26
2023-01-05T16:13:26.920Z,8.34
2023-01-05T16:15:55.061Z,8.45
2023-01-05T16:18:29.089Z,8.45
2023-01-05T16:20:56.629Z,8.41
2023-01-05T16:23:32.490Z,8.38
2023-01-05T16:25:59.771Z,8.35
2023-01-05T16:28:26.809Z,8.35
2023-01-05T16:30:54.196Z,8.44
2023-01-05T16:33:23.665Z,8.35
2023-01-05T16:35:53.002Z,8.37
2023-01-05T16:38:30.177Z,8.31
2023-01-05T16:41:22.801Z,8.15
2023-01-05T16:43:54.914Z,8.28
2023-01-05T16:46:25.285Z,8.27
2023-01-05T16:48:58.396Z,8.22
2023-01-05T16:51:37.107Z,8.24
2023-01-05T16:54:12.663Z,8.17
2023-01-05T16:56:46.303Z,8.33
2023-01-05T16:59:40.739Z,8.27
2023-01-05T17:02:27.657Z,8.24
2023-01-05T17:04:54.285Z,8.25
2023-01-05T17:07:20.965Z,8.29
2023-01-05T17:09:47.689Z,8.34
2023-01-05T17:12:14.254Z,8.35
2023-01-05T17:14:41.465Z,8.15
2023-01-05T17:17:12.323Z,8.15
2023-01-05T17:19:39.045Z,8.00
2023-01-05T17:22:06.951Z,8.08
2023-01-05T17:24:35.728Z,8.05
2023-01-05T17:27:02.575Z,8.04
2023-01-05T17:29:31.575Z,8.07
2023-01-05T17:31:58.393Z,8.12
2023-01-05T17:34:25.079Z,8.14
2023-01-05T17:36:54.857Z,8.16
2023-01-05T17:39:22.078Z,8.13
2023-01-05T17:41:48.988Z,8.11
2023-01-05T17:44:16.360Z,8.01
2023-01-05T17:46:45.179Z,7.98
2023-01-05T17:49:14.845Z,8.03
2023-01-05T17:51:41.373Z,7.94
2023-01-05T17:54:07.870Z,7.99
2023-01-05T17:56:34.419Z,7.94
2023-01-05T17:59:00.942Z,7.99
2023-01-05T18:01:27.522Z,8.06
2023-01-05T18:03:54.087Z,8.03
2023-01-05T18:06:20.648Z,7.97
2023-01-05T18:08:47.254Z,7.97
2023-01-05T18:11:14.796Z,7.97
2023-01-05T18:16:11.650Z,8.01
2023-01-05T18:18:38.461Z,8.00
2023-01-05T18:21:05.742Z,8.02
2023-01-05T18:23:32.786Z,8.02
2023-01-05T18:26:07.123Z,8.01
2023-01-05T18:28:33.878Z,7.93
2023-01-05T18:31:01.249Z,7.96
2023-01-05T18:33:28.296Z,7.95
2023-01-05T18:38:21.724Z,7.88
2023-01-05T18:40:49.705Z,7.83
2023-01-05T18:43:16.671Z,7.80
2023-01-05T18:45:43.289Z,7.90
2023-01-05T18:48:09.899Z,7.93
2023-01-05T18:50:41.017Z,7.90
2023-01-05T18:53:07.726Z,7.88
2023-01-05T18:55:34.263Z,7.86
2023-01-05T18:58:00.831Z,7.83
2023-01-05T19:00:27.409Z,7.85
2023-01-05T19:02:53.942Z,7.85
2023-01-05T19:05:20.491Z,7.80
2023-01-05T19:07:50.966Z,7.79
2023-01-05T19:10:17.585Z,7.85
2023-01-05T19:12:44.094Z,7.88
2023-01-05T19:15:11.076Z,7.86
2023-01-05T19:17:37.660Z,7.89
2023-01-05T19:20:04.614Z,7.92
2023-01-05T19:22:31.332Z,7.97
2023-01-05T19:24:58.850Z,8.00
2023-01-05T19:27:28.138Z,7.96
2023-01-05T19:29:54.757Z,7.95
2023-01-05T19:32:21.320Z,7.96
2023-01-05T19:34:47.883Z,7.92
2023-01-05T19:37:14.550Z,7.93
2023-01-05T19:39:41.185Z,7.88
2023-01-05T19:42:07.916Z,7.85
2023-01-05T19:44:34.472Z,7.83
2023-01-05T19:47:01.028Z,7.77
2023-01-05T19:49:28.336Z,7.73
2023-01-05T19:51:55.015Z,7.67
2023-01-05T19:54:22.714Z,7.67
2023-01-05T19:56:49.526Z,7.64
2023-01-05T19:59:18.032Z,7.62
2023-01-05T20:01:45.076Z,7.55
2023-01-05T20:04:11.658Z,7.58
2023-01-05T20:06:40.827Z,7.57
2023-01-05T20:09:10.676Z,7.54
2023-01-05T20:11:39.865Z,7.53
2023-01-05T20:14:24.756Z,7.45
2023-01-05T20:16:56.809Z,7.48
2023-01-05T20:19:26.677Z,7.47
2023-01-05T20:21:53.694Z,7.41
2023-01-05T20:24:25.257Z,7.35
2023-01-05T20:26:54.152Z,7.35
2023-01-05T20:29:21.723Z,7.36
2023-01-05T20:31:54.184Z,7.30
2023-01-05T20:34:22.060Z,7.30
2023-01-05T20:36:49.742Z,7.31
2023-01-05T20:39:18.627Z,7.28
2023-01-05T20:41:47.197Z,7.30
2023-01-05T20:44:14.529Z,7.30
2023-01-05T20:46:43.548Z,7.33
2023-01-05T20:49:10.493Z,7.33
2023-01-05T20:51:37.974Z,7.30
2023-01-05T20:54:06.013Z,7.30
2023-01-05T20:56:38.365Z,7.29
2023-01-05T20:59:30.143Z,7.24
2023-01-05T21:01:57.391Z,7.19
2023-01-05T21:04:25.215Z,7.13
2023-01-05T21:06:54.271Z,7.07
2023-01-05T21:09:22.207Z,7.00
2023-01-05T21:11:48.774Z,6.89
2023-01-05T21:14:15.799Z,6.80
2023-01-05T21:16:46.040Z,6.77
2023-01-05T21:19:17.720Z,6.69
2023-01-05T21:21:48.970Z,6.61
2023-01-05T21:24:15.899Z,6.61
2023-01-05T21:26:42.596Z,6.57
2023-01-05T21:29:10.871Z,6.52
2023-01-05T21:31:38.079Z,6.48
2023-01-05T21:34:04.734Z,6.45
2023-01-05T21:36:32.620Z,6.41
2023-01-05T21:39:03.607Z,6.38
2023-01-05T21:41:53.872Z,6.33
2023-01-05T21:44:21.361Z,6.29
2023-01-05T21:46:49.150Z,6.24
2023-01-05T21:49:16.908Z,6.19
2023-01-05T21:52:02.276Z,6.14
2023-01-05T21:54:47.423Z,6.06
2023-01-05T21:57:14.019Z,5.98
2023-01-05T21:59:41.127Z,5.97
2023-01-05T22:02:07.798Z,5.97
2023-01-05T22:04:34.478Z,5.97
2023-01-05T22:07:01.276Z,5.93
2023-01-05T22:09:27.808Z,5.91
2023-01-05T22:11:54.495Z,5.80
2023-01-05T22:14:21.038Z,5.69
2023-01-05T22:16:47.576Z,5.60
2023-01-05T22:19:14.231Z,5.52
2023-01-05T22:21:40.811Z,5.45
2023-01-05T22:24:08.968Z,5.40
2023-01-05T22:26:35.759Z,5.35
2023-01-05T22:29:02.308Z,5.34
2023-01-05T22:31:30.075Z,5.30
2023-01-05T22:33:59.304Z,5.25
2023-01-05T22:36:27.769Z,5.18
2023-01-05T22:38:54.935Z,5.13
2023-01-05T22:41:24.145Z,5.09
2023-01-05T22:43:50.757Z,5.06
2023-01-05T22:46:22.941Z,5.05
2023-01-05T22:48:51.374Z,5.01
2023-01-05T22:51:20.056Z,4.98
2023-01-05T22:53:47.291Z,4.93
2023-01-05T22:56:15.397Z,4.87
2023-01-05T22:58:42.340Z,4.81
2023-01-05T23:01:21.398Z,4.73
2023-01-05T23:03:48.953Z,4.70
2023-01-05T23:06:15.480Z,4.69
2023-01-05T23:08:42.782Z,4.68
2023-01-05T23:11:20.033Z,4.63
2023-01-05T23:13:47.359Z,4.61
2023-01-05T23:16:14.542Z,4.58
2023-01-05T23:18:41.489Z,4.51
2023-01-05T23:21:09.976Z,4.45
2023-01-05T23:23:37.642Z,4.38
2023-01-05T23:26:06.218Z,4.36
2023-01-05T23:28:33.351Z,4.36
2023-01-05T23:31:00.535Z,4.36
2023-01-05T23:33:29.449Z,4.36
2023-01-05T23:35:56.285Z,4.36
2023-01-05T23:38:24.337Z,4.38
2023-01-05T23:40:52.851Z,4.40
2023-01-05T23:43:21.529Z,4.46
2023-01-05T23:45:48.336Z,4.48
2023-01-05T23:48:15.440Z,4.51
2023-01-05T23:50:47.029Z,4.56
2023-01-05T23:53:14.147Z,4.56
2023-01-05T23:55:41.208Z,4.58
2023-01-05T23:58:08.675Z,4.57
